sensor_id;sensor_type;location;lat;lon;timestamp;temperature;humidity
16767;DHT22;8501;49.926;8.404;2023-04-26T00:00:20;7.30;99.90
16767;DHT22;8501;49.926;8.404;2023-04-26T00:02:46;7.40;99.90
16767;DHT22;8501;49.926;8.404;2023-04-26T00:05:11;7.30;99.90
16767;DHT22;8501;49.926;8.404;2023-04-26T00:07:38;7.30;99.90
16767;DHT22;8501;49.926;8.404;2023-04-26T00:10:05;7.20;99.90
16767;DHT22;8501;49.926;8.404;2023-04-26T00:12:31;7.20;99.90
16767;DHT22;8501;49.926;8.404;2023-04-26T00:14:57;7.30;99.90
16767;DHT22;8501;49.926;8.404;2023-04-26T00:17:23;7.30;99.90
16767;DHT22;8501;49.926;8.404;2023-04-26T00:19:49;7.50;99.90
16767;DHT22;8501;49.926;8.404;2023-04-26T00:22:15;7.50;99.90
16767;DHT22;8501;49.926;8.404;2023-04-26T00:24:41;7.40;99.90
16767;DHT22;8501;49.926;8.404;2023-04-26T00:27:07;7.40;99.90
16767;DHT22;8501;49.926;8.404;2023-04-26T00:29:33;7.40;99.90
16767;DHT22;8501;49.926;8.404;2023-04-26T00:31:59;7.30;99.90
16767;DHT22;8501;49.926;8.404;2023-04-26T00:34:31;7.30;99.90
16767;DHT22;8501;49.926;8.404;2023-04-26T00:36:57;7.30;99.90
16767;DHT22;8501;49.926;8.404;2023-04-26T00:39:22;7.40;99.90
16767;DHT22;8501;49.926;8.404;2023-04-26T00:41:48;7.40;99.90
16767;DHT22;8501;49.926;8.404;2023-04-26T00:44:14;7.30;99.90
16767;DHT22;8501;49.926;8.404;2023-04-26T00:46:40;7.30;99.90
16767;DHT22;8501;49.926;8.404;2023-04-26T00:49:05;7.20;99.90
16767;DHT22;8501;49.926;8.404;2023-04-26T00:51:31;7.20;99.90
16767;DHT22;8501;49.926;8.404;2023-04-26T00:53:57;7.20;99.90
16767;DHT22;8501;49.926;8.404;2023-04-26T00:56:23;7.20;99.90
16767;DHT22;8501;49.926;8.404;2023-04-26T00:58:49;7.00;99.90
16767;DHT22;8501;49.926;8.404;2023-04-26T01:01:15;6.90;99.90
16767;DHT22;8501;49.926;8.404;2023-04-26T01:03:40;6.80;99.90
16767;DHT22;8501;49.926;8.404;2023-04-26T01:06:06;6.80;99.90
16767;DHT22;8501;49.926;8.404;2023-04-26T01:08:32;6.70;99.90
16767;DHT22;8501;49.926;8.404;2023-04-26T01:10:58;6.70;99.90
16767;DHT22;8501;49.926;8.404;2023-04-26T01:13:24;6.70;99.90
16767;DHT22;8501;49.926;8.404;2023-04-26T01:15:51;6.80;99.90
16767;DHT22;8501;49.926;8.404;2023-04-26T01:18:17;6.70;99.90
16767;DHT22;8501;49.926;8.404;2023-04-26T01:20:43;6.70;99.90
16767;DHT22;8501;49.926;8.404;2023-04-26T01:23:11;6.60;99.90
16767;DHT22;8501;49.926;8.404;2023-04-26T01:25:36;6.60;99.90
16767;DHT22;8501;49.926;8.404;2023-04-26T01:28:02;6.60;99.90
16767;DHT22;8501;49.926;8.404;2023-04-26T01:30:28;6.60;99.90
16767;DHT22;8501;49.926;8.404;2023-04-26T01:32:53;6.60;99.90
16767;DHT22;8501;49.926;8.404;2023-04-26T01:35:20;6.50;99.90
16767;DHT22;8501;49.926;8.404;2023-04-26T01:37:46;6.50;99.90
16767;DHT22;8501;49.926;8.404;2023-04-26T01:40:11;6.60;99.90
16767;DHT22;8501;49.926;8.404;2023-04-26T01:42:37;6.50;99.90
16767;DHT22;8501;49.926;8.404;2023-04-26T01:45:03;6.40;99.90
16767;DHT22;8501;49.926;8.404;2023-04-26T01:47:28;6.30;99.90
16767;DHT22;8501;49.926;8.404;2023-04-26T01:49:54;6.30;99.90
16767;DHT22;8501;49.926;8.404;2023-04-26T01:52:20;6.40;99.90
16767;DHT22;8501;49.926;8.404;2023-04-26T01:54:46;6.40;99.90
16767;DHT22;8501;49.926;8.404;2023-04-26T01:57:11;6.20;99.90
16767;DHT22;8501;49.926;8.404;2023-04-26T01:59:37;6.10;99.90
16767;DHT22;8501;49.926;8.404;2023-04-26T02:02:02;6.10;99.90
16767;DHT22;8501;49.926;8.404;2023-04-26T02:04:28;6.00;99.90
16767;DHT22;8501;49.926;8.404;2023-04-26T02:06:54;6.10;99.90
16767;DHT22;8501;49.926;8.404;2023-04-26T02:09:19;6.10;99.90
16767;DHT22;8501;49.926;8.404;2023-04-26T02:11:45;5.90;99.90
16767;DHT22;8501;49.926;8.404;2023-04-26T02:14:10;5.90;99.90
16767;DHT22;8501;49.926;8.404;2023-04-26T02:16:38;5.90;99.90
16767;DHT22;8501;49.926;8.404;2023-04-26T02:19:03;6.10;99.90
16767;DHT22;8501;49.926;8.404;2023-04-26T02:21:29;6.00;99.90
16767;DHT22;8501;49.926;8.404;2023-04-26T02:23:55;6.00;99.90
16767;DHT22;8501;49.926;8.404;2023-04-26T02:26:21;5.90;99.90
16767;DHT22;8501;49.926;8.404;2023-04-26T02:28:47;6.00;99.90
16767;DHT22;8501;49.926;8.404;2023-04-26T02:31:12;6.00;99.90
16767;DHT22;8501;49.926;8.404;2023-04-26T02:33:38;6.00;99.90
16767;DHT22;8501;49.926;8.404;2023-04-26T02:36:04;6.00;99.90
16767;DHT22;8501;49.926;8.404;2023-04-26T02:38:32;5.90;99.90
16767;DHT22;8501;49.926;8.404;2023-04-26T02:40:59;5.80;99.90
16767;DHT22;8501;49.926;8.404;2023-04-26T02:43:25;5.80;99.90
16767;DHT22;8501;49.926;8.404;2023-04-26T02:45:51;5.80;99.90
16767;DHT22;8501;49.926;8.404;2023-04-26T02:48:16;5.80;99.90
16767;DHT22;8501;49.926;8.404;2023-04-26T02:50:42;5.90;99.90
16767;DHT22;8501;49.926;8.404;2023-04-26T02:53:07;5.90;99.90
16767;DHT22;8501;49.926;8.404;2023-04-26T02:55:33;5.90;99.90
16767;DHT22;8501;49.926;8.404;2023-04-26T02:57:58;5.80;99.90
16767;DHT22;8501;49.926;8.404;2023-04-26T03:00:24;5.80;99.90
16767;DHT22;8501;49.926;8.404;2023-04-26T03:02:50;5.80;99.90
16767;DHT22;8501;49.926;8.404;2023-04-26T03:05:16;5.70;99.90
16767;DHT22;8501;49.926;8.404;2023-04-26T03:07:41;5.60;99.90
16767;DHT22;8501;49.926;8.404;2023-04-26T03:10:07;5.50;99.90
16767;DHT22;8501;49.926;8.404;2023-04-26T03:12:34;5.50;99.90
16767;DHT22;8501;49.926;8.404;2023-04-26T03:14:59;5.50;99.90
16767;DHT22;8501;49.926;8.404;2023-04-26T03:17:27;5.40;99.90
16767;DHT22;8501;49.926;8.404;2023-04-26T03:19:53;5.40;99.90
16767;DHT22;8501;49.926;8.404;2023-04-26T03:22:18;5.50;99.90
16767;DHT22;8501;49.926;8.404;2023-04-26T03:24:44;5.50;99.90
16767;DHT22;8501;49.926;8.404;2023-04-26T03:27:11;5.50;99.90
16767;DHT22;8501;49.926;8.404;2023-04-26T03:29:36;5.40;99.90
16767;DHT22;8501;49.926;8.404;2023-04-26T03:32:02;5.40;99.90
16767;DHT22;8501;49.926;8.404;2023-04-26T03:34:27;5.40;99.90
16767;DHT22;8501;49.926;8.404;2023-04-26T03:36:53;5.40;99.90
16767;DHT22;8501;49.926;8.404;2023-04-26T03:39:18;5.40;99.90
16767;DHT22;8501;49.926;8.404;2023-04-26T03:41:44;5.30;99.90
16767;DHT22;8501;49.926;8.404;2023-04-26T03:44:10;5.50;99.90
16767;DHT22;8501;49.926;8.404;2023-04-26T03:46:36;5.40;99.90
16767;DHT22;8501;49.926;8.404;2023-04-26T03:49:02;5.10;99.90
16767;DHT22;8501;49.926;8.404;2023-04-26T03:51:28;5.10;99.90
16767;DHT22;8501;49.926;8.404;2023-04-26T03:53:54;5.00;99.90
16767;DHT22;8501;49.926;8.404;2023-04-26T03:56:19;5.00;99.90
16767;DHT22;8501;49.926;8.404;2023-04-26T03:58:45;4.90;99.90
16767;DHT22;8501;49.926;8.404;2023-04-26T04:01:11;5.00;99.90
16767;DHT22;8501;49.926;8.404;2023-04-26T04:03:37;5.00;99.90
16767;DHT22;8501;49.926;8.404;2023-04-26T04:06:02;5.00;99.90
16767;DHT22;8501;49.926;8.404;2023-04-26T04:08:28;5.00;99.90
16767;DHT22;8501;49.926;8.404;2023-04-26T04:10:54;5.00;99.90
16767;DHT22;8501;49.926;8.404;2023-04-26T04:13:20;5.00;99.90
16767;DHT22;8501;49.926;8.404;2023-04-26T04:15:46;5.10;99.90
16767;DHT22;8501;49.926;8.404;2023-04-26T04:18:12;5.10;99.90
16767;DHT22;8501;49.926;8.404;2023-04-26T04:20:40;5.20;99.90
16767;DHT22;8501;49.926;8.404;2023-04-26T04:23:05;5.20;99.90
16767;DHT22;8501;49.926;8.404;2023-04-26T04:25:32;5.20;99.90
16767;DHT22;8501;49.926;8.404;2023-04-26T04:27:59;5.10;99.90
16767;DHT22;8501;49.926;8.404;2023-04-26T04:30:26;5.20;99.90
16767;DHT22;8501;49.926;8.404;2023-04-26T04:32:52;5.10;99.90
16767;DHT22;8501;49.926;8.404;2023-04-26T04:35:17;5.10;99.90
16767;DHT22;8501;49.926;8.404;2023-04-26T04:37:43;5.00;99.90
16767;DHT22;8501;49.926;8.404;2023-04-26T04:40:10;5.00;99.90
16767;DHT22;8501;49.926;8.404;2023-04-26T04:42:36;5.10;99.90
16767;DHT22;8501;49.926;8.404;2023-04-26T04:45:01;5.00;99.90
16767;DHT22;8501;49.926;8.404;2023-04-26T04:47:27;5.00;99.90
16767;DHT22;8501;49.926;8.404;2023-04-26T04:49:53;5.00;99.90
16767;DHT22;8501;49.926;8.404;2023-04-26T04:52:18;4.90;99.90
16767;DHT22;8501;49.926;8.404;2023-04-26T04:54:46;4.90;99.90
16767;DHT22;8501;49.926;8.404;2023-04-26T04:57:12;5.00;99.90
16767;DHT22;8501;49.926;8.404;2023-04-26T04:59:38;5.00;99.90
16767;DHT22;8501;49.926;8.404;2023-04-26T05:02:04;4.90;99.90
16767;DHT22;8501;49.926;8.404;2023-04-26T05:04:29;5.00;99.90
16767;DHT22;8501;49.926;8.404;2023-04-26T05:06:58;5.10;99.90
16767;DHT22;8501;49.926;8.404;2023-04-26T05:09:24;5.20;99.90
16767;DHT22;8501;49.926;8.404;2023-04-26T05:11:49;5.00;99.90
16767;DHT22;8501;49.926;8.404;2023-04-26T05:14:15;5.00;99.90
16767;DHT22;8501;49.926;8.404;2023-04-26T05:16:40;5.10;99.90
16767;DHT22;8501;49.926;8.404;2023-04-26T05:19:06;5.00;99.90
16767;DHT22;8501;49.926;8.404;2023-04-26T05:21:32;4.90;99.90
16767;DHT22;8501;49.926;8.404;2023-04-26T05:23:58;5.00;99.90
16767;DHT22;8501;49.926;8.404;2023-04-26T05:26:23;5.10;99.90
16767;DHT22;8501;49.926;8.404;2023-04-26T05:28:49;5.10;99.90
16767;DHT22;8501;49.926;8.404;2023-04-26T05:31:15;5.20;99.90
16767;DHT22;8501;49.926;8.404;2023-04-26T05:33:41;5.30;99.90
16767;DHT22;8501;49.926;8.404;2023-04-26T05:36:07;5.40;99.90
16767;DHT22;8501;49.926;8.404;2023-04-26T05:38:33;5.60;99.90
16767;DHT22;8501;49.926;8.404;2023-04-26T05:41:00;5.60;99.90
16767;DHT22;8501;49.926;8.404;2023-04-26T05:43:25;5.70;99.90
16767;DHT22;8501;49.926;8.404;2023-04-26T05:45:55;5.70;99.90
16767;DHT22;8501;49.926;8.404;2023-04-26T05:48:22;5.80;99.90
16767;DHT22;8501;49.926;8.404;2023-04-26T05:50:49;5.90;99.90
16767;DHT22;8501;49.926;8.404;2023-04-26T05:53:15;5.90;99.90
16767;DHT22;8501;49.926;8.404;2023-04-26T05:55:44;6.00;99.90
16767;DHT22;8501;49.926;8.404;2023-04-26T05:58:10;6.00;99.90
16767;DHT22;8501;49.926;8.404;2023-04-26T06:00:37;6.10;99.90
16767;DHT22;8501;49.926;8.404;2023-04-26T06:03:03;6.10;99.90
16767;DHT22;8501;49.926;8.404;2023-04-26T06:05:30;6.20;99.90
16767;DHT22;8501;49.926;8.404;2023-04-26T06:07:56;6.30;99.90
16767;DHT22;8501;49.926;8.404;2023-04-26T06:10:21;6.30;99.90
16767;DHT22;8501;49.926;8.404;2023-04-26T06:12:47;6.30;99.90
16767;DHT22;8501;49.926;8.404;2023-04-26T06:15:12;6.40;99.90
16767;DHT22;8501;49.926;8.404;2023-04-26T06:17:39;6.40;99.90
16767;DHT22;8501;49.926;8.404;2023-04-26T06:20:05;6.50;99.90
16767;DHT22;8501;49.926;8.404;2023-04-26T06:22:31;6.50;99.90
16767;DHT22;8501;49.926;8.404;2023-04-26T06:24:56;6.60;99.90
16767;DHT22;8501;49.926;8.404;2023-04-26T06:27:22;6.70;99.90
16767;DHT22;8501;49.926;8.404;2023-04-26T06:29:47;6.80;99.90
16767;DHT22;8501;49.926;8.404;2023-04-26T06:32:13;6.80;99.90
16767;DHT22;8501;49.926;8.404;2023-04-26T06:34:38;6.90;99.90
16767;DHT22;8501;49.926;8.404;2023-04-26T06:37:04;6.90;99.90
16767;DHT22;8501;49.926;8.404;2023-04-26T06:39:30;7.00;99.90
16767;DHT22;8501;49.926;8.404;2023-04-26T06:41:56;7.00;99.90
16767;DHT22;8501;49.926;8.404;2023-04-26T06:44:21;7.10;99.90
16767;DHT22;8501;49.926;8.404;2023-04-26T06:46:47;7.20;99.90
16767;DHT22;8501;49.926;8.404;2023-04-26T06:49:13;7.30;99.90
16767;DHT22;8501;49.926;8.404;2023-04-26T06:51:39;7.40;99.90
16767;DHT22;8501;49.926;8.404;2023-04-26T06:54:06;7.40;99.90
16767;DHT22;8501;49.926;8.404;2023-04-26T06:56:32;7.50;99.90
16767;DHT22;8501;49.926;8.404;2023-04-26T06:59:03;7.60;99.90
16767;DHT22;8501;49.926;8.404;2023-04-26T07:01:29;7.60;99.90
16767;DHT22;8501;49.926;8.404;2023-04-26T07:04:05;7.70;99.90
16767;DHT22;8501;49.926;8.404;2023-04-26T07:06:37;7.80;99.90
16767;DHT22;8501;49.926;8.404;2023-04-26T07:09:03;7.80;99.90
16767;DHT22;8501;49.926;8.404;2023-04-26T07:11:29;7.90;99.90
16767;DHT22;8501;49.926;8.404;2023-04-26T07:13:55;7.90;99.90
16767;DHT22;8501;49.926;8.404;2023-04-26T07:16:21;7.90;99.90
16767;DHT22;8501;49.926;8.404;2023-04-26T07:18:47;8.00;99.90
16767;DHT22;8501;49.926;8.404;2023-04-26T07:21:13;8.00;99.90
16767;DHT22;8501;49.926;8.404;2023-04-26T07:23:38;8.10;99.90
16767;DHT22;8501;49.926;8.404;2023-04-26T07:26:04;8.20;99.90
16767;DHT22;8501;49.926;8.404;2023-04-26T07:28:30;8.20;99.90
16767;DHT22;8501;49.926;8.404;2023-04-26T07:30:57;8.30;99.90
16767;DHT22;8501;49.926;8.404;2023-04-26T07:33:23;8.40;99.90
16767;DHT22;8501;49.926;8.404;2023-04-26T07:35:56;8.50;99.90
16767;DHT22;8501;49.926;8.404;2023-04-26T07:38:22;8.50;99.90
16767;DHT22;8501;49.926;8.404;2023-04-26T07:40:48;8.70;99.90
16767;DHT22;8501;49.926;8.404;2023-04-26T07:43:15;8.70;99.90
16767;DHT22;8501;49.926;8.404;2023-04-26T07:45:41;8.80;99.90
16767;DHT22;8501;49.926;8.404;2023-04-26T07:48:06;8.80;99.90
16767;DHT22;8501;49.926;8.404;2023-04-26T07:50:32;8.80;99.90
16767;DHT22;8501;49.926;8.404;2023-04-26T07:52:58;8.80;99.90
16767;DHT22;8501;49.926;8.404;2023-04-26T07:55:24;8.90;99.90
16767;DHT22;8501;49.926;8.404;2023-04-26T07:57:50;8.90;99.90
16767;DHT22;8501;49.926;8.404;2023-04-26T08:00:16;8.90;99.90
16767;DHT22;8501;49.926;8.404;2023-04-26T08:02:43;8.80;99.90
16767;DHT22;8501;49.926;8.404;2023-04-26T08:05:10;8.80;99.90
16767;DHT22;8501;49.926;8.404;2023-04-26T08:07:36;8.80;99.90
16767;DHT22;8501;49.926;8.404;2023-04-26T08:10:02;8.90;99.90
16767;DHT22;8501;49.926;8.404;2023-04-26T08:12:28;8.90;99.90
16767;DHT22;8501;49.926;8.404;2023-04-26T08:14:53;9.00;99.90
16767;DHT22;8501;49.926;8.404;2023-04-26T08:17:19;9.00;99.90
16767;DHT22;8501;49.926;8.404;2023-04-26T08:19:44;9.10;99.90
16767;DHT22;8501;49.926;8.404;2023-04-26T08:22:10;9.10;99.90
16767;DHT22;8501;49.926;8.404;2023-04-26T08:24:35;9.10;99.90
16767;DHT22;8501;49.926;8.404;2023-04-26T08:27:01;9.10;99.90
16767;DHT22;8501;49.926;8.404;2023-04-26T08:29:27;9.10;99.90
16767;DHT22;8501;49.926;8.404;2023-04-26T08:31:53;9.30;99.90
16767;DHT22;8501;49.926;8.404;2023-04-26T08:34:18;9.40;99.90
16767;DHT22;8501;49.926;8.404;2023-04-26T08:36:44;9.60;99.90
16767;DHT22;8501;49.926;8.404;2023-04-26T08:39:10;9.70;99.90
16767;DHT22;8501;49.926;8.404;2023-04-26T08:41:45;9.70;99.90
16767;DHT22;8501;49.926;8.404;2023-04-26T08:44:14;9.70;99.90
16767;DHT22;8501;49.926;8.404;2023-04-26T08:46:45;9.70;99.90
16767;DHT22;8501;49.926;8.404;2023-04-26T08:51:59;9.70;99.90
16767;DHT22;8501;49.926;8.404;2023-04-26T08:54:25;9.70;99.90
16767;DHT22;8501;49.926;8.404;2023-04-26T08:56:52;9.80;99.90
16767;DHT22;8501;49.926;8.404;2023-04-26T08:59:19;9.80;99.90
16767;DHT22;8501;49.926;8.404;2023-04-26T09:01:45;9.90;99.90
16767;DHT22;8501;49.926;8.404;2023-04-26T09:04:12;10.00;99.90
16767;DHT22;8501;49.926;8.404;2023-04-26T09:06:38;10.00;99.90
16767;DHT22;8501;49.926;8.404;2023-04-26T09:09:05;10.00;99.90
16767;DHT22;8501;49.926;8.404;2023-04-26T09:11:55;10.10;99.90
16767;DHT22;8501;49.926;8.404;2023-04-26T09:14:22;10.20;99.90
16767;DHT22;8501;49.926;8.404;2023-04-26T09:16:48;10.20;99.90
16767;DHT22;8501;49.926;8.404;2023-04-26T09:19:13;10.10;99.90
16767;DHT22;8501;49.926;8.404;2023-04-26T09:21:43;10.20;99.90
16767;DHT22;8501;49.926;8.404;2023-04-26T09:24:10;10.20;99.90
16767;DHT22;8501;49.926;8.404;2023-04-26T09:26:35;10.30;99.90
16767;DHT22;8501;49.926;8.404;2023-04-26T09:29:15;10.30;99.90
16767;DHT22;8501;49.926;8.404;2023-04-26T09:31:43;10.30;99.90
16767;DHT22;8501;49.926;8.404;2023-04-26T09:34:10;10.40;99.90
16767;DHT22;8501;49.926;8.404;2023-04-26T09:36:47;10.40;99.90
16767;DHT22;8501;49.926;8.404;2023-04-26T09:39:13;10.50;99.90
16767;DHT22;8501;49.926;8.404;2023-04-26T09:41:43;10.60;99.90
16767;DHT22;8501;49.926;8.404;2023-04-26T09:44:22;10.70;99.90
16767;DHT22;8501;49.926;8.404;2023-04-26T09:47:01;10.80;99.90
16767;DHT22;8501;49.926;8.404;2023-04-26T09:49:32;10.80;99.90
16767;DHT22;8501;49.926;8.404;2023-04-26T09:52:04;10.80;99.90
16767;DHT22;8501;49.926;8.404;2023-04-26T09:54:48;10.90;99.90
16767;DHT22;8501;49.926;8.404;2023-04-26T09:57:15;11.00;99.90
16767;DHT22;8501;49.926;8.404;2023-04-26T09:59:44;11.00;99.90
16767;DHT22;8501;49.926;8.404;2023-04-26T10:04:44;11.10;99.90
16767;DHT22;8501;49.926;8.404;2023-04-26T10:07:12;11.00;99.90
16767;DHT22;8501;49.926;8.404;2023-04-26T10:09:38;10.90;99.90
16767;DHT22;8501;49.926;8.404;2023-04-26T10:12:04;11.00;99.90
16767;DHT22;8501;49.926;8.404;2023-04-26T10:14:29;11.00;99.90
16767;DHT22;8501;49.926;8.404;2023-04-26T10:16:57;11.00;99.90
16767;DHT22;8501;49.926;8.404;2023-04-26T10:19:22;11.00;99.90
16767;DHT22;8501;49.926;8.404;2023-04-26T10:21:49;11.10;99.90
16767;DHT22;8501;49.926;8.404;2023-04-26T10:24:16;11.10;99.90
16767;DHT22;8501;49.926;8.404;2023-04-26T10:26:46;10.90;99.90
16767;DHT22;8501;49.926;8.404;2023-04-26T10:29:25;10.90;99.90
16767;DHT22;8501;49.926;8.404;2023-04-26T10:34:27;11.00;99.90
16767;DHT22;8501;49.926;8.404;2023-04-26T10:37:15;11.10;99.90
16767;DHT22;8501;49.926;8.404;2023-04-26T10:39:43;11.10;99.90
16767;DHT22;8501;49.926;8.404;2023-04-26T10:42:25;11.10;99.90
16767;DHT22;8501;49.926;8.404;2023-04-26T10:47:27;11.10;99.90
16767;DHT22;8501;49.926;8.404;2023-04-26T10:52:26;11.20;99.90
16767;DHT22;8501;49.926;8.404;2023-04-26T10:54:55;11.20;99.90
16767;DHT22;8501;49.926;8.404;2023-04-26T10:57:23;11.30;99.90
16767;DHT22;8501;49.926;8.404;2023-04-26T11:02:45;11.70;99.90
16767;DHT22;8501;49.926;8.404;2023-04-26T11:08:17;11.60;99.90
16767;DHT22;8501;49.926;8.404;2023-04-26T11:10:49;11.70;99.90
16767;DHT22;8501;49.926;8.404;2023-04-26T11:13:16;11.90;99.90
16767;DHT22;8501;49.926;8.404;2023-04-26T11:15:42;11.90;99.90
16767;DHT22;8501;49.926;8.404;2023-04-26T11:18:08;12.00;99.90
16767;DHT22;8501;49.926;8.404;2023-04-26T11:20:33;12.20;99.90
16767;DHT22;8501;49.926;8.404;2023-04-26T11:22:59;12.40;99.90
16767;DHT22;8501;49.926;8.404;2023-04-26T11:25:26;12.20;99.90
16767;DHT22;8501;49.926;8.404;2023-04-26T11:27:57;12.10;99.90
16767;DHT22;8501;49.926;8.404;2023-04-26T11:30:23;12.10;99.90
16767;DHT22;8501;49.926;8.404;2023-04-26T11:32:48;12.00;99.90
16767;DHT22;8501;49.926;8.404;2023-04-26T11:35:14;12.00;99.90
16767;DHT22;8501;49.926;8.404;2023-04-26T11:37:40;12.00;99.90
16767;DHT22;8501;49.926;8.404;2023-04-26T11:40:09;12.00;99.90
16767;DHT22;8501;49.926;8.404;2023-04-26T11:42:35;12.00;99.90
16767;DHT22;8501;49.926;8.404;2023-04-26T11:45:02;12.00;99.90
16767;DHT22;8501;49.926;8.404;2023-04-26T11:47:32;12.00;99.90
16767;DHT22;8501;49.926;8.404;2023-04-26T11:49:58;12.20;99.90
16767;DHT22;8501;49.926;8.404;2023-04-26T11:52:24;12.20;99.90
16767;DHT22;8501;49.926;8.404;2023-04-26T11:55:03;12.30;99.90
16767;DHT22;8501;49.926;8.404;2023-04-26T11:57:30;12.30;99.90
16767;DHT22;8501;49.926;8.404;2023-04-26T12:00:13;12.30;99.90
16767;DHT22;8501;49.926;8.404;2023-04-26T12:02:42;12.40;99.90
16767;DHT22;8501;49.926;8.404;2023-04-26T12:05:08;12.40;99.90
16767;DHT22;8501;49.926;8.404;2023-04-26T12:07:35;12.40;99.90
16767;DHT22;8501;49.926;8.404;2023-04-26T12:10:23;12.30;99.90
16767;DHT22;8501;49.926;8.404;2023-04-26T12:12:51;12.40;99.90
16767;DHT22;8501;49.926;8.404;2023-04-26T12:15:18;12.60;99.90
16767;DHT22;8501;49.926;8.404;2023-04-26T12:20:32;12.80;99.90
16767;DHT22;8501;49.926;8.404;2023-04-26T12:23:02;12.80;99.90
16767;DHT22;8501;49.926;8.404;2023-04-26T12:25:29;12.70;99.90
16767;DHT22;8501;49.926;8.404;2023-04-26T12:27:55;12.80;99.90
16767;DHT22;8501;49.926;8.404;2023-04-26T12:30:20;12.90;99.90
16767;DHT22;8501;49.926;8.404;2023-04-26T12:32:46;13.10;99.90
16767;DHT22;8501;49.926;8.404;2023-04-26T12:35:12;13.10;99.90
16767;DHT22;8501;49.926;8.404;2023-04-26T12:37:38;13.20;99.90
16767;DHT22;8501;49.926;8.404;2023-04-26T12:40:04;13.30;99.90
16767;DHT22;8501;49.926;8.404;2023-04-26T12:42:31;13.20;99.90
16767;DHT22;8501;49.926;8.404;2023-04-26T12:44:57;13.10;99.90
16767;DHT22;8501;49.926;8.404;2023-04-26T12:47:22;13.00;99.90
16767;DHT22;8501;49.926;8.404;2023-04-26T12:49:48;13.00;99.90
16767;DHT22;8501;49.926;8.404;2023-04-26T12:52:13;13.00;99.90
16767;DHT22;8501;49.926;8.404;2023-04-26T12:54:39;13.10;99.90
16767;DHT22;8501;49.926;8.404;2023-04-26T12:57:05;13.00;99.90
16767;DHT22;8501;49.926;8.404;2023-04-26T12:59:30;13.00;99.90
16767;DHT22;8501;49.926;8.404;2023-04-26T13:01:56;13.10;99.90
16767;DHT22;8501;49.926;8.404;2023-04-26T13:04:22;13.00;99.90
16767;DHT22;8501;49.926;8.404;2023-04-26T13:06:47;13.10;99.90
16767;DHT22;8501;49.926;8.404;2023-04-26T13:09:13;13.20;99.90
16767;DHT22;8501;49.926;8.404;2023-04-26T13:11:39;13.20;99.90
16767;DHT22;8501;49.926;8.404;2023-04-26T13:14:05;13.20;99.90
16767;DHT22;8501;49.926;8.404;2023-04-26T13:16:34;13.20;99.90
16767;DHT22;8501;49.926;8.404;2023-04-26T13:19:00;13.20;99.90
16767;DHT22;8501;49.926;8.404;2023-04-26T13:21:26;13.20;99.90
16767;DHT22;8501;49.926;8.404;2023-04-26T13:23:51;13.40;99.90
16767;DHT22;8501;49.926;8.404;2023-04-26T13:26:17;13.40;99.90
16767;DHT22;8501;49.926;8.404;2023-04-26T13:28:42;13.40;99.90
16767;DHT22;8501;49.926;8.404;2023-04-26T13:31:08;13.50;99.90
16767;DHT22;8501;49.926;8.404;2023-04-26T13:33:33;13.40;99.90
16767;DHT22;8501;49.926;8.404;2023-04-26T13:35:59;13.50;99.90
16767;DHT22;8501;49.926;8.404;2023-04-26T13:38:25;13.40;99.90
16767;DHT22;8501;49.926;8.404;2023-04-26T13:40:50;13.40;99.90
16767;DHT22;8501;49.926;8.404;2023-04-26T13:43:16;13.40;99.90
16767;DHT22;8501;49.926;8.404;2023-04-26T13:45:42;13.40;99.90
16767;DHT22;8501;49.926;8.404;2023-04-26T13:48:07;13.40;99.90
16767;DHT22;8501;49.926;8.404;2023-04-26T13:50:36;13.30;99.90
16767;DHT22;8501;49.926;8.404;2023-04-26T13:53:01;13.30;99.90
16767;DHT22;8501;49.926;8.404;2023-04-26T13:55:27;13.40;99.90
16767;DHT22;8501;49.926;8.404;2023-04-26T13:57:54;13.60;99.90
16767;DHT22;8501;49.926;8.404;2023-04-26T14:00:20;13.70;99.90
16767;DHT22;8501;49.926;8.404;2023-04-26T14:02:47;13.70;99.90
16767;DHT22;8501;49.926;8.404;2023-04-26T14:05:13;13.80;99.90
16767;DHT22;8501;49.926;8.404;2023-04-26T14:07:40;13.80;99.90
16767;DHT22;8501;49.926;8.404;2023-04-26T14:10:06;14.00;99.90
16767;DHT22;8501;49.926;8.404;2023-04-26T14:12:32;14.10;99.90
16767;DHT22;8501;49.926;8.404;2023-04-26T14:14:57;14.20;99.90
16767;DHT22;8501;49.926;8.404;2023-04-26T14:17:26;14.30;99.90
16767;DHT22;8501;49.926;8.404;2023-04-26T14:19:53;14.10;99.90
16767;DHT22;8501;49.926;8.404;2023-04-26T14:22:19;14.40;99.90
16767;DHT22;8501;49.926;8.404;2023-04-26T14:24:45;14.40;99.90
16767;DHT22;8501;49.926;8.404;2023-04-26T14:27:11;14.30;99.90
16767;DHT22;8501;49.926;8.404;2023-04-26T14:29:36;14.20;99.90
16767;DHT22;8501;49.926;8.404;2023-04-26T14:32:02;14.10;99.90
16767;DHT22;8501;49.926;8.404;2023-04-26T14:34:27;14.00;99.90
16767;DHT22;8501;49.926;8.404;2023-04-26T14:36:53;14.00;99.90
16767;DHT22;8501;49.926;8.404;2023-04-26T14:39:18;13.90;99.90
16767;DHT22;8501;49.926;8.404;2023-04-26T14:41:44;14.00;99.90
16767;DHT22;8501;49.926;8.404;2023-04-26T14:44:09;14.10;99.90
16767;DHT22;8501;49.926;8.404;2023-04-26T14:46:35;14.20;99.90
16767;DHT22;8501;49.926;8.404;2023-04-26T14:49:01;14.40;99.90
16767;DHT22;8501;49.926;8.404;2023-04-26T14:51:27;14.50;99.90
16767;DHT22;8501;49.926;8.404;2023-04-26T14:53:55;14.90;99.90
16767;DHT22;8501;49.926;8.404;2023-04-26T14:56:21;15.20;99.90
16767;DHT22;8501;49.926;8.404;2023-04-26T14:58:48;15.60;99.90
16767;DHT22;8501;49.926;8.404;2023-04-26T15:01:13;16.00;99.90
16767;DHT22;8501;49.926;8.404;2023-04-26T15:03:39;16.40;99.90
16767;DHT22;8501;49.926;8.404;2023-04-26T15:06:04;16.80;99.90
16767;DHT22;8501;49.926;8.404;2023-04-26T15:08:32;16.90;98.70
16767;DHT22;8501;49.926;8.404;2023-04-26T15:10:57;17.10;98.00
16767;DHT22;8501;49.926;8.404;2023-04-26T15:13:23;17.20;97.60
16767;DHT22;8501;49.926;8.404;2023-04-26T15:15:48;17.20;96.60
16767;DHT22;8501;49.926;8.404;2023-04-26T15:18:14;17.30;97.30
16767;DHT22;8501;49.926;8.404;2023-04-26T15:20:39;17.40;96.70
16767;DHT22;8501;49.926;8.404;2023-04-26T15:23:05;17.30;96.30
16767;DHT22;8501;49.926;8.404;2023-04-26T15:25:34;17.00;96.10
16767;DHT22;8501;49.926;8.404;2023-04-26T15:28:00;16.50;96.50
16767;DHT22;8501;49.926;8.404;2023-04-26T15:30:26;16.00;97.10
16767;DHT22;8501;49.926;8.404;2023-04-26T15:32:51;15.70;97.80
16767;DHT22;8501;49.926;8.404;2023-04-26T15:35:17;15.70;97.70
16767;DHT22;8501;49.926;8.404;2023-04-26T15:37:42;15.50;98.20
16767;DHT22;8501;49.926;8.404;2023-04-26T15:40:09;15.10;97.50
16767;DHT22;8501;49.926;8.404;2023-04-26T15:42:35;14.90;98.00
16767;DHT22;8501;49.926;8.404;2023-04-26T15:45:01;14.70;98.60
16767;DHT22;8501;49.926;8.404;2023-04-26T15:47:27;14.60;98.80
16767;DHT22;8501;49.926;8.404;2023-04-26T15:49:52;14.50;98.80
16767;DHT22;8501;49.926;8.404;2023-04-26T15:52:19;14.50;99.00
16767;DHT22;8501;49.926;8.404;2023-04-26T15:54:45;14.50;99.40
16767;DHT22;8501;49.926;8.404;2023-04-26T15:57:11;14.40;99.50
16767;DHT22;8501;49.926;8.404;2023-04-26T15:59:37;14.50;99.60
16767;DHT22;8501;49.926;8.404;2023-04-26T16:02:02;14.60;99.50
16767;DHT22;8501;49.926;8.404;2023-04-26T16:04:29;14.50;99.80
16767;DHT22;8501;49.926;8.404;2023-04-26T16:06:55;14.70;99.90
16767;DHT22;8501;49.926;8.404;2023-04-26T16:09:21;14.60;99.80
16767;DHT22;8501;49.926;8.404;2023-04-26T16:11:47;14.50;99.90